Time;durP1;ratioP1;P1;durP2;ratioP2;P2;SDS_P1;SDS_P2;PMS_P1;PMS_P2;Temp;Humidity;BMP_temperature;BMP_pressure;BME280_temperature;BME280_humidity;BME280_pressure;Samples;Min_cycle;Max_cycle;Signal;HPM_P1;HPM_P2
2021/09/03 00:02:25;;;;;;;145.60;32.72;;;;;;;;;;5101004;28;20057;-66
2021/09/03 00:04:52;;;;;;;127.60;30.93;;;;;;;;;;5097784;28;20047;-66
2021/09/03 00:07:19;;;;;;;124.07;26.33;;;;;;;;;;5095621;28;20134;-67
2021/09/03 00:09:45;;;;;;;320.42;29.25;;;;;;;;;;5090366;28;20066;-66
2021/09/03 00:12:12;;;;;;;460.08;39.60;;;;;;;;;;5101892;28;20583;-66
2021/09/03 00:14:38;;;;;;;138.95;21.60;;;;;;;;;;5100908;28;20500;-66
2021/09/03 00:17:05;;;;;;;62.72;22.70;;;;;;;;;;5102164;28;20445;-66
2021/09/03 00:19:31;;;;;;;65.78;23.45;;;;;;;;;;5102112;28;20047;-66
2021/09/03 00:21:58;;;;;;;65.75;23.70;;;;;;;;;;5100492;28;20570;-67
2021/09/03 00:24:25;;;;;;;64.93;23.13;;;;;;;;;;5098209;28;20138;-67
2021/09/03 00:26:51;;;;;;;77.63;24.58;;;;;;;;;;5100047;28;20535;-66
2021/09/03 00:29:18;;;;;;;68.25;23.60;;;;;;;;;;5095705;28;20495;-66
2021/09/03 00:31:44;;;;;;;61.15;21.63;;;;;;;;;;5099858;28;20787;-66
2021/09/03 00:34:11;;;;;;;60.33;22.88;;;;;;;;;;5098131;28;20514;-66
2021/09/03 00:36:37;;;;;;;68.68;23.80;;;;;;;;;;5093636;28;20048;-66
2021/09/03 00:39:04;;;;;;;67.37;23.37;;;;;;;;;;5094345;28;20054;-66
2021/09/03 00:41:30;;;;;;;61.15;21.73;;;;;;;;;;5099801;28;20054;-66
2021/09/03 00:43:57;;;;;;;57.72;22.05;;;;;;;;;;5098177;28;20113;-66
2021/09/03 00:46:23;;;;;;;41.35;18.05;;;;;;;;;;5093098;28;20044;-66
2021/09/03 00:48:50;;;;;;;69.07;22.42;;;;;;;;;;5096141;28;20134;-64
2021/09/03 00:51:16;;;;;;;69.57;22.27;;;;;;;;;;5097201;28;20048;-66
2021/09/03 00:53:43;;;;;;;50.70;19.17;;;;;;;;;;5098466;28;20040;-66
2021/09/03 00:56:10;;;;;;;41.70;17.60;;;;;;;;;;5103224;28;20130;-66
2021/09/03 00:58:36;;;;;;;34.50;16.37;;;;;;;;;;5103263;28;20044;-67
2021/09/03 01:01:04;;;;;;;38.45;16.77;;;;;;;;;;5103071;28;20055;-66
2021/09/03 01:03:30;;;;;;;34.97;16.05;;;;;;;;;;5102661;28;20058;-66
2021/09/03 01:06:02;;;;;;;34.55;15.75;;;;;;;;;;5104016;28;20053;-66
2021/09/03 01:08:29;;;;;;;41.28;16.15;;;;;;;;;;5100057;28;20043;-64
2021/09/03 01:10:55;;;;;;;37.70;16.25;;;;;;;;;;5097354;28;20051;-64
2021/09/03 01:13:22;;;;;;;31.45;15.32;;;;;;;;;;5099998;27;20083;-64
2021/09/03 01:15:48;;;;;;;37.45;15.05;;;;;;;;;;5100511;28;20040;-66
2021/09/03 01:18:15;;;;;;;30.80;14.68;;;;;;;;;;5095989;28;20082;-65
2021/09/03 01:20:42;;;;;;;38.05;16.40;;;;;;;;;;5104577;28;20062;-64
2021/09/03 01:23:09;;;;;;;31.73;15.13;;;;;;;;;;5101747;28;20047;-65
2021/09/03 01:25:35;;;;;;;35.53;15.80;;;;;;;;;;5098835;28;20126;-65
2021/09/03 01:28:03;;;;;;;34.55;16.17;;;;;;;;;;5096451;28;20062;-66
2021/09/03 01:30:29;;;;;;;47.10;16.83;;;;;;;;;;5102532;28;20124;-65
2021/09/03 01:32:55;;;;;;;36.28;16.40;;;;;;;;;;5103241;28;20134;-64
2021/09/03 01:35:22;;;;;;;33.15;15.38;;;;;;;;;;5101407;28;20054;-64
2021/09/03 01:37:48;;;;;;;33.10;15.95;;;;;;;;;;5099399;27;20517;-65
2021/09/03 01:40:15;;;;;;;36.67;16.65;;;;;;;;;;5097852;28;20043;-65
2021/09/03 01:42:42;;;;;;;37.17;15.95;;;;;;;;;;5103133;28;20082;-64
2021/09/03 01:45:09;;;;;;;33.65;14.82;;;;;;;;;;5095411;28;20055;-64
2021/09/03 01:47:35;;;;;;;43.80;17.55;;;;;;;;;;5101469;28;20139;-64
2021/09/03 01:50:02;;;;;;;39.53;16.65;;;;;;;;;;5097367;28;20044;-65
2021/09/03 01:52:28;;;;;;;36.63;15.13;;;;;;;;;;5097201;28;20143;-66
2021/09/03 01:54:55;;;;;;;41.05;17.13;;;;;;;;;;5098406;28;20140;-64
2021/09/03 01:57:21;;;;;;;47.08;19.13;;;;;;;;;;5099728;28;20509;-64
2021/09/03 01:59:48;;;;;;;45.67;17.90;;;;;;;;;;5096655;28;20142;-64
2021/09/03 02:02:14;;;;;;;44.65;18.02;;;;;;;;;;5100175;28;20143;-64
2021/09/03 02:04:41;;;;;;;45.15;18.42;;;;;;;;;;5100690;28;20487;-64
2021/09/03 02:07:08;;;;;;;70.22;18.38;;;;;;;;;;5099208;28;20679;-64
2021/09/03 02:09:34;;;;;;;41.13;16.75;;;;;;;;;;5097356;28;20131;-64
2021/09/03 02:12:01;;;;;;;48.05;17.85;;;;;;;;;;5092691;28;20487;-64
2021/09/03 02:14:27;;;;;;;40.90;17.67;;;;;;;;;;5102099;28;20044;-65
2021/09/03 02:16:53;;;;;;;48.28;18.00;;;;;;;;;;5096126;28;20054;-65
2021/09/03 02:19:20;;;;;;;49.07;17.50;;;;;;;;;;5097843;27;20046;-64
2021/09/03 02:21:47;;;;;;;49.00;17.20;;;;;;;;;;5099913;28;20134;-65
2021/09/03 02:24:13;;;;;;;34.80;16.58;;;;;;;;;;5095741;28;20134;-64
2021/09/03 02:26:40;;;;;;;34.67;15.05;;;;;;;;;;5098380;28;20143;-65
2021/09/03 02:29:06;;;;;;;42.03;17.00;;;;;;;;;;5100233;28;20142;-65
2021/09/03 02:31:32;;;;;;;38.83;16.85;;;;;;;;;;5097286;28;20503;-65
2021/09/03 02:33:59;;;;;;;35.95;16.67;;;;;;;;;;5099817;28;20407;-64
2021/09/03 02:36:25;;;;;;;36.05;16.42;;;;;;;;;;5086405;28;20055;-65
2021/09/03 02:38:52;;;;;;;45.13;17.98;;;;;;;;;;5103862;27;20035;-65
2021/09/03 02:41:18;;;;;;;37.83;16.88;;;;;;;;;;5099561;28;20043;-64
2021/09/03 02:43:45;;;;;;;47.92;18.30;;;;;;;;;;5097813;28;20044;-65
2021/09/03 02:46:11;;;;;;;399.95;21.60;;;;;;;;;;5098979;28;20048;-65
2021/09/03 02:48:38;;;;;;;38.42;15.50;;;;;;;;;;5101982;28;20143;-64
2021/09/03 02:51:04;;;;;;;48.78;17.75;;;;;;;;;;5096010;28;20130;-64
2021/09/03 02:53:31;;;;;;;44.97;17.48;;;;;;;;;;5105512;28;20554;-64
2021/09/03 02:55:57;;;;;;;43.78;17.10;;;;;;;;;;5098469;28;20045;-64
2021/09/03 02:58:24;;;;;;;43.13;17.15;;;;;;;;;;5102573;28;20139;-64
2021/09/03 03:00:50;;;;;;;44.92;16.90;;;;;;;;;;5095498;28;20067;-64
2021/09/03 03:03:17;;;;;;;39.88;17.00;;;;;;;;;;5096571;28;20048;-64
2021/09/03 03:05:44;;;;;;;35.97;15.98;;;;;;;;;;5099955;28;20040;-64
2021/09/03 03:08:10;;;;;;;39.85;16.33;;;;;;;;;;5097548;28;20499;-64
2021/09/03 03:10:37;;;;;;;35.30;15.35;;;;;;;;;;5094883;28;20044;-64
2021/09/03 03:13:19;;;;;;;24.85;13.07;;;;;;;;;;5098549;28;20054;-64
2021/09/03 03:15:47;;;;;;;33.47;14.30;;;;;;;;;;5098665;28;20139;-64
2021/09/03 03:18:13;;;;;;;41.78;16.08;;;;;;;;;;5099112;28;20060;-65
2021/09/03 03:20:41;;;;;;;34.65;15.32;;;;;;;;;;5095878;27;20142;-64
2021/09/03 03:23:09;;;;;;;47.15;17.20;;;;;;;;;;5085218;28;20130;-64
2021/09/03 03:25:36;;;;;;;34.58;15.65;;;;;;;;;;5100001;28;20570;-64
2021/09/03 03:28:02;;;;;;;40.30;16.47;;;;;;;;;;5096374;28;20055;-64
2021/09/03 03:30:29;;;;;;;36.17;15.65;;;;;;;;;;5094724;28;20058;-64
2021/09/03 03:32:55;;;;;;;39.97;16.13;;;;;;;;;;5102354;27;20090;-64
2021/09/03 03:35:22;;;;;;;177.25;20.52;;;;;;;;;;5097230;28;20130;-64
2021/09/03 03:37:49;;;;;;;40.75;16.02;;;;;;;;;;5097864;28;20143;-64
2021/09/03 03:40:16;;;;;;;54.77;18.40;;;;;;;;;;5095354;28;20052;-64
2021/09/03 03:43:03;;;;;;;43.10;17.65;;;;;;;;;;5093015;28;20048;-64
2021/09/03 03:45:31;;;;;;;49.42;18.40;;;;;;;;;;5095551;28;20055;-64
2021/09/03 03:47:58;;;;;;;43.05;17.02;;;;;;;;;;5099011;28;20043;-64
2021/09/03 03:50:25;;;;;;;38.97;16.13;;;;;;;;;;5098656;28;20048;-64
2021/09/03 03:52:52;;;;;;;36.58;16.58;;;;;;;;;;5094616;28;20079;-64
2021/09/03 03:55:18;;;;;;;30.80;13.75;;;;;;;;;;5100763;28;20495;-65
2021/09/03 03:57:44;;;;;;;51.75;15.43;;;;;;;;;;5098526;28;20567;-64
2021/09/03 04:00:11;;;;;;;32.28;14.15;;;;;;;;;;5100961;28;20559;-64
2021/09/03 04:02:37;;;;;;;39.10;17.88;;;;;;;;;;5099542;28;20143;-64
2021/09/03 04:05:04;;;;;;;42.92;17.30;;;;;;;;;;5097418;28;20131;-64
2021/09/03 04:07:32;;;;;;;49.05;16.73;;;;;;;;;;5092569;28;20418;-64
2021/09/03 04:09:58;;;;;;;43.20;16.67;;;;;;;;;;5094221;28;20088;-64
2021/09/03 04:12:24;;;;;;;39.65;16.13;;;;;;;;;;5099595;28;20131;-64
2021/09/03 04:14:51;;;;;;;36.45;16.45;;;;;;;;;;5100418;28;20145;-64
2021/09/03 04:17:18;;;;;;;33.85;14.85;;;;;;;;;;5098706;28;20104;-64
2021/09/03 04:19:44;;;;;;;38.55;16.23;;;;;;;;;;5102016;28;20134;-64
2021/09/03 04:22:11;;;;;;;39.83;16.30;;;;;;;;;;5096969;28;20151;-64
2021/09/03 04:24:37;;;;;;;23.85;12.13;;;;;;;;;;5094269;28;20130;-64
2021/09/03 04:27:04;;;;;;;22.20;11.82;;;;;;;;;;5099965;28;20093;-64
2021/09/03 04:29:30;;;;;;;20.60;11.70;;;;;;;;;;5102334;28;20134;-64
2021/09/03 04:31:58;;;;;;;24.65;11.50;;;;;;;;;;5098011;28;20050;-65
2021/09/03 04:34:24;;;;;;;;;;;;;;;;;;5099144;28;20086;-64
2021/09/03 04:36:51;;;;;;;30.00;12.38;;;;;;;;;;5100986;27;19962;-64
2021/09/03 04:39:17;;;;;;;30.35;12.75;;;;;;;;;;5106061;28;20480;-64
2021/09/03 04:41:44;;;;;;;24.13;12.13;;;;;;;;;;5098491;28;20147;-64
2021/09/03 04:44:10;;;;;;;27.13;12.40;;;;;;;;;;5097951;28;20056;-64
2021/09/03 04:46:37;;;;;;;22.58;11.20;;;;;;;;;;5103205;28;20083;-64
2021/09/03 04:49:03;;;;;;;24.92;11.55;;;;;;;;;;5100288;28;20084;-64
2021/09/03 04:51:29;;;;;;;31.38;13.52;;;;;;;;;;5096451;28;20557;-64
2021/09/03 04:53:56;;;;;;;26.42;13.70;;;;;;;;;;5103011;28;20612;-64
2021/09/03 04:56:22;;;;;;;26.70;12.40;;;;;;;;;;5097793;28;20113;-64
2021/09/03 04:58:49;;;;;;;25.60;12.60;;;;;;;;;;5109304;27;20489;-63
2021/09/03 05:01:15;;;;;;;25.45;11.65;;;;;;;;;;5097261;28;20071;-64
2021/09/03 05:03:42;;;;;;;27.42;13.00;;;;;;;;;;5101712;28;20051;-64
2021/09/03 05:06:09;;;;;;;20.05;11.23;;;;;;;;;;5101191;28;20135;-64
2021/09/03 05:08:36;;;;;;;23.63;11.13;;;;;;;;;;5104357;27;20134;-64
2021/09/03 05:11:02;;;;;;;19.45;10.80;;;;;;;;;;5103908;28;20079;-64
2021/09/03 05:13:29;;;;;;;21.83;11.77;;;;;;;;;;5102841;28;20048;-64
2021/09/03 05:15:55;;;;;;;26.67;11.30;;;;;;;;;;5102024;28;20264;-64
2021/09/03 05:18:26;;;;;;;25.38;12.18;;;;;;;;;;5103334;28;20043;-64
2021/09/03 05:20:53;;;;;;;24.77;12.68;;;;;;;;;;5102397;28;20143;-64
2021/09/03 05:23:19;;;;;;;23.57;11.93;;;;;;;;;;5101050;28;20070;-64
2021/09/03 05:25:46;;;;;;;28.95;14.00;;;;;;;;;;5101538;28;20123;-64
2021/09/03 05:28:12;;;;;;;29.60;12.85;;;;;;;;;;5099279;28;20084;-64
2021/09/03 05:30:39;;;;;;;26.27;13.27;;;;;;;;;;5102078;28;20118;-64
2021/09/03 05:33:06;;;;;;;28.77;13.93;;;;;;;;;;5101059;28;20047;-64
2021/09/03 05:35:32;;;;;;;30.85;13.07;;;;;;;;;;5104159;28;20588;-64
2021/09/03 05:38:04;;;;;;;23.75;13.27;;;;;;;;;;5104904;27;20138;-64
2021/09/03 05:40:31;;;;;;;28.88;14.35;;;;;;;;;;5096813;27;20152;-64
2021/09/03 05:42:58;;;;;;;27.60;14.18;;;;;;;;;;5098049;28;20091;-64
2021/09/03 05:45:24;;;;;;;28.30;13.65;;;;;;;;;;5096671;28;20506;-64
2021/09/03 05:47:51;;;;;;;26.73;14.20;;;;;;;;;;5102440;28;20131;-64
2021/09/03 05:50:18;;;;;;;31.45;15.05;;;;;;;;;;5103813;28;20058;-64
2021/09/03 05:52:45;;;;;;;26.77;13.40;;;;;;;;;;5098811;28;20078;-64
2021/09/03 05:55:11;;;;;;;27.40;12.10;;;;;;;;;;5096030;28;20487;-64
2021/09/03 05:57:38;;;;;;;17.95;10.52;;;;;;;;;;5097646;28;20480;-64
2021/09/03 06:00:05;;;;;;;16.87;9.87;;;;;;;;;;5098455;28;20479;-64
2021/09/03 06:02:32;;;;;;;20.73;10.88;;;;;;;;;;5102703;28;20490;-64
2021/09/03 06:04:59;;;;;;;20.55;11.23;;;;;;;;;;5103974;28;20044;-64
2021/09/03 06:07:25;;;;;;;23.92;11.45;;;;;;;;;;5099300;28;20119;-64
2021/09/03 06:09:52;;;;;;;21.27;11.80;;;;;;;;;;5101172;28;20113;-64
2021/09/03 06:12:18;;;;;;;22.83;11.63;;;;;;;;;;5099168;28;20133;-63
2021/09/03 06:14:44;;;;;;;24.02;11.73;;;;;;;;;;5104174;28;20104;-63
2021/09/03 06:17:13;;;;;;;20.15;12.38;;;;;;;;;;5106511;28;20079;-64
2021/09/03 06:19:39;;;;;;;23.67;13.07;;;;;;;;;;5094396;28;20075;-64
2021/09/03 06:22:05;;;;;;;23.67;12.45;;;;;;;;;;5097396;28;20470;-64
2021/09/03 06:24:34;;;;;;;24.80;12.30;;;;;;;;;;5099763;28;20132;-64
2021/09/03 06:27:10;;;;;;;22.25;12.90;;;;;;;;;;5103701;28;20117;-64
2021/09/03 06:29:43;;;;;;;23.23;12.45;;;;;;;;;;5097768;28;21119;-64
2021/09/03 06:32:15;;;;;;;23.00;13.00;;;;;;;;;;5099092;27;20079;-64
2021/09/03 06:34:42;;;;;;;22.27;11.55;;;;;;;;;;5097380;27;20138;-64
2021/09/03 06:37:09;;;;;;;24.77;13.55;;;;;;;;;;5102288;28;20048;-64
2021/09/03 06:39:36;;;;;;;20.15;11.77;;;;;;;;;;5107451;27;20566;-64
2021/09/03 06:42:03;;;;;;;21.30;12.40;;;;;;;;;;5105177;27;20139;-64
2021/09/03 06:44:30;;;;;;;24.20;12.45;;;;;;;;;;5104013;27;20131;-64
2021/09/03 06:46:57;;;;;;;23.00;12.97;;;;;;;;;;5105708;28;20134;-64
2021/09/03 06:49:24;;;;;;;20.10;11.90;;;;;;;;;;5099292;28;20155;-63
2021/09/03 06:51:52;;;;;;;22.08;13.52;;;;;;;;;;5098598;27;20481;-64
2021/09/03 06:54:19;;;;;;;18.75;12.68;;;;;;;;;;5105533;28;20058;-64
2021/09/03 06:56:46;;;;;;;21.25;11.38;;;;;;;;;;5100762;27;20090;-64
2021/09/03 06:59:12;;;;;;;14.85;10.95;;;;;;;;;;5094436;27;20180;-64
2021/09/03 07:01:39;;;;;;;18.02;10.65;;;;;;;;;;5103789;27;20130;-64
2021/09/03 07:04:06;;;;;;;19.10;11.13;;;;;;;;;;5100678;28;20101;-63
2021/09/03 07:06:32;;;;;;;24.00;12.95;;;;;;;;;;5102848;28;20056;-64
2021/09/03 07:08:59;;;;;;;17.38;11.48;;;;;;;;;;5092203;27;20499;-64
2021/09/03 07:11:26;;;;;;;20.08;11.73;;;;;;;;;;5085391;28;20031;-64
2021/09/03 07:13:52;;;;;;;25.57;12.07;;;;;;;;;;5094741;28;20079;-64
2021/09/03 07:16:19;;;;;;;14.48;10.70;;;;;;;;;;5101800;28;20054;-64
2021/09/03 07:18:45;;;;;;;20.00;11.05;;;;;;;;;;5098487;28;20056;-64
2021/09/03 07:21:12;;;;;;;17.30;9.60;;;;;;;;;;5096877;28;20123;-64
2021/09/03 07:23:38;;;;;;;15.80;10.55;;;;;;;;;;5096952;28;20414;-64
2021/09/03 07:26:05;;;;;;;16.90;10.13;;;;;;;;;;5099043;28;20614;-64
2021/09/03 07:28:31;;;;;;;18.33;10.20;;;;;;;;;;5094154;27;20131;-64
2021/09/03 07:30:59;;;;;;;14.13;9.10;;;;;;;;;;5096697;28;20083;-64
2021/09/03 07:33:25;;;;;;;11.90;8.38;;;;;;;;;;5096976;27;20514;-64
2021/09/03 07:35:52;;;;;;;15.27;8.88;;;;;;;;;;5104307;27;20044;-64
2021/09/03 07:38:22;;;;;;;15.77;7.78;;;;;;;;;;5099219;28;20087;-64
2021/09/03 07:40:48;;;;;;;12.73;7.03;;;;;;;;;;5099064;28;20079;-64
2021/09/03 07:43:16;;;;;;;12.48;7.18;;;;;;;;;;5097439;28;20489;-64
2021/09/03 07:45:42;;;;;;;;;;;;;;;;;;5104073;27;20082;-64
2021/09/03 07:48:09;;;;;;;11.30;6.60;;;;;;;;;;5101380;28;19965;-64
2021/09/03 07:50:36;;;;;;;9.05;6.53;;;;;;;;;;5098528;28;20046;-64
2021/09/03 07:53:03;;;;;;;10.48;6.32;;;;;;;;;;5099766;28;20055;-64
2021/09/03 07:55:42;;;;;;;11.15;6.93;;;;;;;;;;5104669;28;20471;-64
2021/09/03 07:58:09;;;;;;;14.23;7.03;;;;;;;;;;5101457;28;20052;-64
2021/09/03 08:00:36;;;;;;;10.85;5.78;;;;;;;;;;5098913;28;20080;-64
2021/09/03 08:03:03;;;;;;;11.07;6.22;;;;;;;;;;5095737;28;20086;-64
2021/09/03 08:05:30;;;;;;;10.18;5.97;;;;;;;;;;5104235;28;20044;-64
2021/09/03 08:07:57;;;;;;;12.03;5.77;;;;;;;;;;5101450;28;20055;-64
2021/09/03 08:10:24;;;;;;;7.75;5.68;;;;;;;;;;5102860;28;20098;-64
2021/09/03 08:12:50;;;;;;;9.15;6.10;;;;;;;;;;5101877;28;20396;-64
2021/09/03 08:15:16;;;;;;;11.23;5.75;;;;;;;;;;5100580;28;20079;-64
2021/09/03 08:17:43;;;;;;;13.95;6.00;;;;;;;;;;5099130;28;20134;-64
2021/09/03 08:20:10;;;;;;;9.15;5.50;;;;;;;;;;5100698;28;20076;-64
2021/09/03 08:22:40;;;;;;;9.18;5.93;;;;;;;;;;5107618;28;20102;-64
2021/09/03 08:25:07;;;;;;;7.68;6.05;;;;;;;;;;5109351;27;20058;-64
2021/09/03 08:27:33;;;;;;;11.33;5.67;;;;;;;;;;5100553;28;20488;-64
2021/09/03 08:30:00;;;;;;;10.97;5.97;;;;;;;;;;5099177;28;20605;-64
2021/09/03 08:32:26;;;;;;;8.98;5.47;;;;;;;;;;5095011;27;20586;-64
2021/09/03 08:34:53;;;;;;;9.88;5.70;;;;;;;;;;5100042;28;20078;-64
2021/09/03 08:37:19;;;;;;;11.63;5.20;;;;;;;;;;5107049;28;20050;-64
2021/09/03 08:39:48;;;;;;;12.40;5.43;;;;;;;;;;5100021;28;20521;-64
2021/09/03 08:42:15;;;;;;;13.43;5.30;;;;;;;;;;5095126;28;20079;-64
2021/09/03 08:44:43;;;;;;;8.83;5.77;;;;;;;;;;5104870;28;20146;-64
2021/09/03 08:47:11;;;;;;;7.65;5.05;;;;;;;;;;5104430;28;20710;-64
2021/09/03 08:49:38;;;;;;;8.82;5.80;;;;;;;;;;5101480;28;20134;-64
2021/09/03 08:52:04;;;;;;;9.77;5.18;;;;;;;;;;5100118;28;20054;-64
2021/09/03 08:54:31;;;;;;;9.83;5.10;;;;;;;;;;5106683;27;20131;-64
2021/09/03 08:56:57;;;;;;;10.48;5.97;;;;;;;;;;5105501;28;20079;-64
2021/09/03 08:59:24;;;;;;;9.68;5.63;;;;;;;;;;5105298;28;20143;-64
2021/09/03 09:02:08;;;;;;;8.32;5.03;;;;;;;;;;5104363;28;20472;-64
2021/09/03 09:04:36;;;;;;;8.95;4.97;;;;;;;;;;5099672;27;20507;-64
2021/09/03 09:07:03;;;;;;;7.68;4.57;;;;;;;;;;5099747;27;20553;-64
2021/09/03 09:09:30;;;;;;;8.25;3.50;;;;;;;;;;5101294;28;20666;-65
2021/09/03 09:12:01;;;;;;;7.93;4.13;;;;;;;;;;5101971;28;20664;-64
2021/09/03 09:14:28;;;;;;;7.53;3.72;;;;;;;;;;5096280;28;20083;-64
2021/09/03 09:17:01;;;;;;;9.48;3.60;;;;;;;;;;5100192;28;20074;-64
2021/09/03 09:19:28;;;;;;;7.75;4.13;;;;;;;;;;5096971;28;20044;-64
2021/09/03 09:22:00;;;;;;;6.33;3.77;;;;;;;;;;5099547;28;20086;-64
2021/09/03 09:24:26;;;;;;;10.75;3.47;;;;;;;;;;5104016;28;20078;-64
2021/09/03 09:26:54;;;;;;;7.60;3.83;;;;;;;;;;5100316;28;20161;-64
2021/09/03 09:29:22;;;;;;;6.18;3.55;;;;;;;;;;5102501;28;20139;-64
2021/09/03 09:31:53;;;;;;;5.88;4.00;;;;;;;;;;5103333;28;20101;-64
2021/09/03 09:34:33;;;;;;;6.75;3.70;;;;;;;;;;5098819;28;20043;-64
2021/09/03 09:37:01;;;;;;;7.43;3.70;;;;;;;;;;5085567;28;20048;-64
2021/09/03 09:39:40;;;;;;;5.47;3.70;;;;;;;;;;5104532;28;20138;-64
2021/09/03 09:42:06;;;;;;;6.00;3.75;;;;;;;;;;5097819;28;20119;-64
2021/09/03 09:44:34;;;;;;;8.35;3.60;;;;;;;;;;5098465;28;20127;-64
2021/09/03 09:47:00;;;;;;;;;;;;;;;;;;5103146;28;20139;-64
2021/09/03 09:49:26;;;;;;;7.20;3.50;;;;;;;;;;5099017;28;20006;-64
2021/09/03 09:51:53;;;;;;;8.25;3.50;;;;;;;;;;5103872;28;20131;-64
2021/09/03 09:54:21;;;;;;;7.13;3.40;;;;;;;;;;5099102;28;20135;-64
2021/09/03 09:56:55;;;;;;;6.43;3.42;;;;;;;;;;5103368;27;20090;-64
2021/09/03 09:59:24;;;;;;;4.63;3.13;;;;;;;;;;5103520;28;20083;-64
2021/09/03 10:01:52;;;;;;;4.43;3.28;;;;;;;;;;5101554;27;20189;-64
2021/09/03 10:04:19;;;;;;;6.22;3.38;;;;;;;;;;5100315;28;20087;-64
2021/09/03 10:06:47;;;;;;;6.93;3.33;;;;;;;;;;5102112;28;20103;-64
2021/09/03 10:09:14;;;;;;;6.88;2.85;;;;;;;;;;5096677;28;20135;-64
2021/09/03 10:11:45;;;;;;;6.40;3.50;;;;;;;;;;5101709;28;20559;-64
2021/09/03 10:14:15;;;;;;;5.43;3.38;;;;;;;;;;5096571;28;20131;-64
2021/09/03 10:16:43;;;;;;;5.43;3.13;;;;;;;;;;5100328;27;20451;-64
2021/09/03 10:19:09;;;;;;;4.53;3.08;;;;;;;;;;5099311;28;20142;-64
2021/09/03 10:21:40;;;;;;;5.53;3.13;;;;;;;;;;5101931;28;20126;-64
2021/09/03 10:24:11;;;;;;;5.35;3.38;;;;;;;;;;5099037;28;20055;-64
2021/09/03 10:26:38;;;;;;;4.97;3.05;;;;;;;;;;5104338;28;20131;-64
2021/09/03 10:29:15;;;;;;;5.63;3.70;;;;;;;;;;5098924;28;20178;-64
2021/09/03 10:31:57;;;;;;;7.15;3.63;;;;;;;;;;5098470;28;20332;-64
2021/09/03 10:34:39;;;;;;;6.15;3.30;;;;;;;;;;5099902;28;20131;-64
2021/09/03 10:37:16;;;;;;;4.20;3.42;;;;;;;;;;5096237;28;20080;-64
2021/09/03 10:39:53;;;;;;;4.30;3.10;;;;;;;;;;5102398;28;20079;-64
2021/09/03 10:45:18;;;;;;;4.03;2.90;;;;;;;;;;5101257;28;20314;-64
2021/09/03 10:47:46;;;;;;;3.92;3.22;;;;;;;;;;5104138;27;20054;-64
2021/09/03 10:50:20;;;;;;;3.78;2.90;;;;;;;;;;5096589;28;20058;-64
2021/09/03 10:53:03;;;;;;;3.30;2.50;;;;;;;;;;5099592;28;20079;-64
2021/09/03 10:55:48;;;;;;;3.70;2.72;;;;;;;;;;5099396;27;20475;-64
2021/09/03 10:58:28;;;;;;;3.85;2.80;;;;;;;;;;5099619;28;20134;-64
2021/09/03 11:01:16;;;;;;;3.53;2.58;;;;;;;;;;5096170;28;20123;-64
2021/09/03 11:03:45;;;;;;;3.40;2.80;;;;;;;;;;5100977;27;20086;-64
2021/09/03 11:06:11;;;;;;;3.90;3.10;;;;;;;;;;5101862;28;20189;-64
2021/09/03 11:08:42;;;;;;;8.83;3.03;;;;;;;;;;5098695;28;22749;-64
2021/09/03 11:11:26;;;;;;;4.90;2.83;;;;;;;;;;5097357;28;20292;-64
2021/09/03 11:13:53;;;;;;;3.45;2.50;;;;;;;;;;5099115;28;20126;-64
2021/09/03 11:16:33;;;;;;;2.78;2.15;;;;;;;;;;5101910;27;20085;-64
2021/09/03 11:19:07;;;;;;;3.13;2.22;;;;;;;;;;5100392;28;20047;-64
2021/09/03 11:21:38;;;;;;;2.60;2.10;;;;;;;;;;5095933;28;20099;-64
2021/09/03 11:24:05;;;;;;;2.58;2.20;;;;;;;;;;5095711;28;20127;-64
2021/09/03 11:26:34;;;;;;;2.50;1.90;;;;;;;;;;5100601;28;20055;-64
2021/09/03 11:29:03;;;;;;;2.78;1.83;;;;;;;;;;5099920;28;20048;-64
2021/09/03 11:31:34;;;;;;;5.10;2.03;;;;;;;;;;5098340;28;20075;-64
2021/09/03 11:34:05;;;;;;;2.13;1.80;;;;;;;;;;5096985;28;20235;-64
2021/09/03 11:36:45;;;;;;;2.20;1.55;;;;;;;;;;5100105;28;20171;-64
2021/09/03 11:39:15;;;;;;;2.40;1.92;;;;;;;;;;5097202;28;20468;-64
2021/09/03 11:41:49;;;;;;;3.25;1.83;;;;;;;;;;5093699;28;20128;-64
2021/09/03 11:44:16;;;;;;;2.20;1.70;;;;;;;;;;5095764;28;20510;-64
2021/09/03 11:46:43;;;;;;;2.40;1.77;;;;;;;;;;5099956;28;20083;-64
2021/09/03 11:49:09;;;;;;;2.35;1.38;;;;;;;;;;5098534;28;20087;-64
2021/09/03 11:51:36;;;;;;;2.25;1.73;;;;;;;;;;5102154;28;20143;-64
2021/09/03 11:54:02;;;;;;;2.63;1.80;;;;;;;;;;5095408;28;20139;-64
2021/09/03 11:56:29;;;;;;;2.00;1.63;;;;;;;;;;5100663;28;20122;-64
2021/09/03 11:59:03;;;;;;;2.08;1.48;;;;;;;;;;5099822;28;20341;-64
2021/09/03 12:01:30;;;;;;;2.30;1.50;;;;;;;;;;5094198;28;20048;-64
2021/09/03 12:03:58;;;;;;;8.03;2.00;;;;;;;;;;5097323;28;20043;-64
2021/09/03 12:06:25;;;;;;;3.83;1.90;;;;;;;;;;5097634;28;20329;-64
2021/09/03 12:08:52;;;;;;;2.92;1.73;;;;;;;;;;5097082;28;20138;-64
2021/09/03 12:11:23;;;;;;;2.10;1.42;;;;;;;;;;5097882;28;20091;-64
2021/09/03 12:13:49;;;;;;;3.30;1.58;;;;;;;;;;5079316;28;20048;-64
2021/09/03 12:16:20;;;;;;;2.42;1.65;;;;;;;;;;5105485;28;20043;-64
2021/09/03 12:18:48;;;;;;;2.22;1.33;;;;;;;;;;5098368;28;20048;-64
2021/09/03 12:21:19;;;;;;;1.70;1.33;;;;;;;;;;5092338;28;20086;-64
2021/09/03 12:23:47;;;;;;;1.48;1.20;;;;;;;;;;5091858;28;20131;-64
2021/09/03 12:26:18;;;;;;;3.08;1.50;;;;;;;;;;5098156;28;20496;-64
2021/09/03 12:28:46;;;;;;;3.03;1.48;;;;;;;;;;5104602;28;20061;-64
2021/09/03 12:31:23;;;;;;;2.08;1.20;;;;;;;;;;5094100;28;20392;-64
2021/09/03 12:33:53;;;;;;;2.00;1.40;;;;;;;;;;5098602;28;20070;-64
2021/09/03 12:36:22;;;;;;;2.20;1.30;;;;;;;;;;5097532;28;20079;-64
2021/09/03 12:38:50;;;;;;;2.65;1.15;;;;;;;;;;5102542;28;20669;-64
2021/09/03 12:41:19;;;;;;;2.47;1.30;;;;;;;;;;5101501;28;20137;-64
2021/09/03 12:43:51;;;;;;;1.58;1.25;;;;;;;;;;5098495;28;20054;-64
2021/09/03 12:46:18;;;;;;;1.63;1.17;;;;;;;;;;5093789;28;20076;-64
2021/09/03 12:49:03;;;;;;;1.83;1.35;;;;;;;;;;5095555;28;20086;-63
2021/09/03 12:51:31;;;;;;;3.13;0.95;;;;;;;;;;5096982;28;20048;-64
2021/09/03 12:53:58;;;;;;;1.45;1.17;;;;;;;;;;5102824;28;20043;-64
2021/09/03 12:56:24;;;;;;;1.30;1.20;;;;;;;;;;5099386;28;20825;-64
2021/09/03 12:58:51;;;;;;;1.83;1.00;;;;;;;;;;5102957;28;20482;-64
2021/09/03 13:01:18;;;;;;;1.58;1.23;;;;;;;;;;5103495;28;20702;-64
2021/09/03 13:03:45;;;;;;;1.50;1.17;;;;;;;;;;5101658;28;20044;-64
2021/09/03 13:06:12;;;;;;;1.17;0.95;;;;;;;;;;5096872;28;20102;-64
2021/09/03 13:08:41;;;;;;;2.90;0.93;;;;;;;;;;5097719;28;20052;-64
2021/09/03 13:11:08;;;;;;;1.25;0.88;;;;;;;;;;5102531;28;20506;-64
2021/09/03 13:13:35;;;;;;;1.92;1.27;;;;;;;;;;5100000;28;20115;-64
2021/09/03 13:16:01;;;;;;;1.80;1.23;;;;;;;;;;5100903;28;20099;-64
2021/09/03 13:18:28;;;;;;;1.95;1.30;;;;;;;;;;5102841;28;20039;-64
2021/09/03 13:20:54;;;;;;;1.77;1.40;;;;;;;;;;5104163;28;20070;-64
2021/09/03 13:23:21;;;;;;;1.88;1.30;;;;;;;;;;5098958;28;20517;-64
2021/09/03 13:25:47;;;;;;;1.85;1.48;;;;;;;;;;5103694;28;20123;-64
2021/09/03 13:28:14;;;;;;;3.00;1.88;;;;;;;;;;5102325;27;20158;-64
2021/09/03 13:30:40;;;;;;;1.90;1.53;;;;;;;;;;5099112;28;20109;-64
2021/09/03 13:33:08;;;;;;;1.85;1.42;;;;;;;;;;5103325;28;20040;-64
2021/09/03 13:35:35;;;;;;;1.95;1.50;;;;;;;;;;5095755;28;20080;-64
2021/09/03 13:38:01;;;;;;;2.45;1.70;;;;;;;;;;5102773;28;20555;-64
2021/09/03 13:40:28;;;;;;;3.05;1.77;;;;;;;;;;5101550;27;20095;-64
2021/09/03 13:42:55;;;;;;;2.55;1.70;;;;;;;;;;5097269;28;20491;-64
2021/09/03 13:45:23;;;;;;;2.00;1.50;;;;;;;;;;5100972;28;20128;-64
2021/09/03 13:47:49;;;;;;;2.72;1.80;;;;;;;;;;5094040;28;20063;-64
2021/09/03 13:50:16;;;;;;;1.63;1.52;;;;;;;;;;5101222;27;20582;-64
2021/09/03 13:52:43;;;;;;;3.00;1.92;;;;;;;;;;5097085;28;20154;-64
2021/09/03 13:55:10;;;;;;;2.47;1.70;;;;;;;;;;5103705;28;20135;-64
2021/09/03 13:57:37;;;;;;;1.70;1.45;;;;;;;;;;5097322;28;20127;-64
2021/09/03 14:00:05;;;;;;;2.85;1.50;;;;;;;;;;5097457;28;20062;-64
2021/09/03 14:02:31;;;;;;;2.65;1.98;;;;;;;;;;5096563;28;20103;-64
2021/09/03 14:04:58;;;;;;;2.97;1.95;;;;;;;;;;5097635;28;20048;-64
2021/09/03 14:07:25;;;;;;;;;;;;;;;;;;5099927;28;20191;-64
2021/09/03 14:09:52;;;;;;;2.20;1.70;;;;;;;;;;5101631;27;20034;-64
2021/09/03 14:12:20;;;;;;;3.20;1.80;;;;;;;;;;5100049;28;20074;-64
2021/09/03 14:14:47;;;;;;;2.55;1.75;;;;;;;;;;5098108;28;20126;-64
2021/09/03 14:17:13;;;;;;;4.80;2.08;;;;;;;;;;5102717;28;20100;-64
2021/09/03 14:19:40;;;;;;;2.92;1.85;;;;;;;;;;5107980;27;20486;-64
2021/09/03 14:22:07;;;;;;;2.65;1.70;;;;;;;;;;5094097;28;20199;-64
2021/09/03 14:24:33;;;;;;;3.72;1.90;;;;;;;;;;5096105;28;20491;-64
2021/09/03 14:27:00;;;;;;;2.95;1.80;;;;;;;;;;5096432;28;20094;-64
2021/09/03 14:29:27;;;;;;;2.30;1.88;;;;;;;;;;5098200;28;20139;-64
2021/09/03 14:31:53;;;;;;;2.60;1.70;;;;;;;;;;5096829;28;20193;-64
2021/09/03 14:34:20;;;;;;;3.23;1.80;;;;;;;;;;5101818;28;20406;-64
2021/09/03 14:36:47;;;;;;;2.97;2.15;;;;;;;;;;5101867;28;20491;-64